Airfield :
LOGIN :

Register | Disclaimer

   EN    FR    IT 

 










Legend :    VFR   Marginal VFR   IFR   Intensive IFR   Very Intensive IFR
Visi :
Ceiling :
>= 8 km
>= 3000ft
5 to 8 km
1000 to 3000 ft
1500m to 5 km
500 to 1000 ft
800 to 1500m
200 to 500 ft
< 800m
< 200 ft
Symbols :   Thunderstorms  Fog  Heavy snow  Heavy precipitations  Wind > 20 kt
SIGMETs :     Misc.  Thunderstorms  Icing  Turbulence  Mountain Waves  Volcanic Ashes






- Airport Elevation : 735 ft
- IATA code : EGO


UUOB - Belgorod

CURRENT METAR :
  • 281500Z 14002MPS 4200 BR BKN040 M00/M02 Q1012 R29/010060 NOSIG

EXPIRED METARs :
  • 281430Z 15003MPS 4400 BR BKN006 00/M02 Q1012 R11/010060 NOSIG
  • 281400Z 14003MPS 4900 BR BKN006 00/M02 Q1012 R11/010060 NOSIG
  • 281330Z 15003MPS 4900 BR BKN008 00/M02 Q1012 R11/010060 NOSIG
  • 281300Z 14002MPS 5000 BR BKN008 00/M02 Q1012 R11/010060 NOSIG
  • 281230Z 17003MPS 4900 BR BKN008 01/M02 Q1012 R11/010060 NOSIG

TAF TAF UUOB
Valid from the 28 at 15:00 until the 29 at 00:00 UTC


281400Z 2815/2824 12003MPS 3100 BR OVC005
TEMPO 2815/2818 1100 BR OVC003
TEMPO 2818/2824 0400 DZ FG OVC002



MET'MAP, your aeronautical weather chart ! - Copyright ORBIFLY December 2007 - Disclaimer

ORBIFLY MET'MAP TEAM :

Programming & Development : Alexandra Zaïnal
Concept & original design : Baudouin d'Aumeries
Assistance for programming : Marc-Olivier Méhu
Technical & hardware support : Manuel Goepfert

Contact : metmap@orbifly.com




SOURCES & CREDITS :

   NOAA